sensor_id;sensor_type;location;lat;lon;timestamp;P1;durP1;ratioP1;P2;durP2;ratioP2
22929;SDS011;11630;42.660;23.292;2022-08-11T00:00:10;10.93;;;5.87;;
22929;SDS011;11630;42.660;23.292;2022-08-11T00:02:45;7.33;;;5.77;;
22929;SDS011;11630;42.660;23.292;2022-08-11T00:05:18;6.10;;;5.50;;
22929;SDS011;11630;42.660;23.292;2022-08-11T00:10:21;5.83;;;5.23;;
22929;SDS011;11630;42.660;23.292;2022-08-11T00:12:56;7.27;;;5.33;;
22929;SDS011;11630;42.660;23.292;2022-08-11T00:15:36;7.07;;;5.13;;
22929;SDS011;11630;42.660;23.292;2022-08-11T00:18:05;6.87;;;5.47;;
22929;SDS011;11630;42.660;23.292;2022-08-11T00:20:37;6.17;;;5.67;;
22929;SDS011;11630;42.660;23.292;2022-08-11T00:23:11;12.90;;;5.90;;
22929;SDS011;11630;42.660;23.292;2022-08-11T00:25:49;6.73;;;5.90;;
22929;SDS011;11630;42.660;23.292;2022-08-11T00:28:49;6.60;;;6.00;;
22929;SDS011;11630;42.660;23.292;2022-08-11T00:31:04;6.20;;;5.07;;
22929;SDS011;11630;42.660;23.292;2022-08-11T00:33:39;6.87;;;6.20;;
22929;SDS011;11630;42.660;23.292;2022-08-11T00:36:14;9.03;;;5.70;;
22929;SDS011;11630;42.660;23.292;2022-08-11T00:38:48;8.03;;;5.53;;
22929;SDS011;11630;42.660;23.292;2022-08-11T00:46:58;6.03;;;5.53;;
22929;SDS011;11630;42.660;23.292;2022-08-11T00:52:35;6.50;;;5.90;;
22929;SDS011;11630;42.660;23.292;2022-08-11T01:32:49;8.13;;;7.33;;
22929;SDS011;11630;42.660;23.292;2022-08-11T01:35:32;10.40;;;7.17;;
22929;SDS011;11630;42.660;23.292;2022-08-11T01:53:25;7.63;;;6.90;;
22929;SDS011;11630;42.660;23.292;2022-08-11T02:02:20;6.80;;;6.20;;
22929;SDS011;11630;42.660;23.292;2022-08-11T02:08:10;7.67;;;6.67;;
22929;SDS011;11630;42.660;23.292;2022-08-11T02:10:57;7.30;;;6.57;;
22929;SDS011;11630;42.660;23.292;2022-08-11T02:13:52;7.43;;;6.70;;
22929;SDS011;11630;42.660;23.292;2022-08-11T02:16:38;9.20;;;7.13;;
22929;SDS011;11630;42.660;23.292;2022-08-11T02:19:24;9.33;;;7.10;;
22929;SDS011;11630;42.660;23.292;2022-08-11T02:22:30;11.17;;;7.00;;
22929;SDS011;11630;42.660;23.292;2022-08-11T02:28:24;9.17;;;6.43;;
22929;SDS011;11630;42.660;23.292;2022-08-11T02:33:56;8.00;;;7.20;;
22929;SDS011;11630;42.660;23.292;2022-08-11T02:36:44;7.77;;;6.97;;
22929;SDS011;11630;42.660;23.292;2022-08-11T02:39:14;8.43;;;6.43;;
22929;SDS011;11630;42.660;23.292;2022-08-11T02:47:54;8.03;;;6.73;;
22929;SDS011;11630;42.660;23.292;2022-08-11T02:56:43;7.70;;;6.97;;
22929;SDS011;11630;42.660;23.292;2022-08-11T03:11:00;6.83;;;6.23;;
22929;SDS011;11630;42.660;23.292;2022-08-11T03:17:09;8.83;;;5.73;;
22929;SDS011;11630;42.660;23.292;2022-08-11T03:27:45;6.83;;;6.10;;
22929;SDS011;11630;42.660;23.292;2022-08-11T03:30:30;6.37;;;5.73;;
22929;SDS011;11630;42.660;23.292;2022-08-11T03:39:11;7.37;;;6.67;;
22929;SDS011;11630;42.660;23.292;2022-08-11T03:47:15;10.60;;;6.50;;
22929;SDS011;11630;42.660;23.292;2022-08-11T04:10:01;6.57;;;5.93;;
22929;SDS011;11630;42.660;23.292;2022-08-11T04:23:24;11.27;;;6.50;;
22929;SDS011;11630;42.660;23.292;2022-08-11T04:34:43;13.10;;;6.57;;
22929;SDS011;11630;42.660;23.292;2022-08-11T04:37:19;9.83;;;7.33;;
22929;SDS011;11630;42.660;23.292;2022-08-11T04:40:11;8.17;;;7.37;;
22929;SDS011;11630;42.660;23.292;2022-08-11T04:43:14;14.87;;;8.03;;
22929;SDS011;11630;42.660;23.292;2022-08-11T04:49:10;12.43;;;7.40;;
22929;SDS011;11630;42.660;23.292;2022-08-11T04:57:52;17.67;;;6.23;;
22929;SDS011;11630;42.660;23.292;2022-08-11T05:04:03;15.20;;;5.70;;
22929;SDS011;11630;42.660;23.292;2022-08-11T05:13:04;9.33;;;7.27;;
22929;SDS011;11630;42.660;23.292;2022-08-11T05:15:51;10.57;;;6.60;;
22929;SDS011;11630;42.660;23.292;2022-08-11T05:18:46;8.27;;;6.93;;
22929;SDS011;11630;42.660;23.292;2022-08-11T05:21:33;12.17;;;6.77;;
22929;SDS011;11630;42.660;23.292;2022-08-11T05:24:21;13.10;;;7.43;;
22929;SDS011;11630;42.660;23.292;2022-08-11T05:27:09;7.53;;;6.70;;
22929;SDS011;11630;42.660;23.292;2022-08-11T05:29:59;7.70;;;6.90;;
22929;SDS011;11630;42.660;23.292;2022-08-11T05:35:49;16.13;;;7.27;;
22929;SDS011;11630;42.660;23.292;2022-08-11T05:38:24;18.23;;;8.07;;
22929;SDS011;11630;42.660;23.292;2022-08-11T05:41:14;12.10;;;7.73;;
22929;SDS011;11630;42.660;23.292;2022-08-11T05:44:02;10.90;;;7.87;;
22929;SDS011;11630;42.660;23.292;2022-08-11T05:46:50;9.63;;;7.90;;
22929;SDS011;11630;42.660;23.292;2022-08-11T05:49:38;7.83;;;6.40;;
22929;SDS011;11630;42.660;23.292;2022-08-11T05:52:25;6.13;;;5.27;;
22929;SDS011;11630;42.660;23.292;2022-08-11T05:55:12;7.83;;;6.93;;
22929;SDS011;11630;42.660;23.292;2022-08-11T05:58:02;6.40;;;5.80;;
22929;SDS011;11630;42.660;23.292;2022-08-11T06:00:41;8.87;;;6.17;;
22929;SDS011;11630;42.660;23.292;2022-08-11T06:03:21;10.73;;;6.53;;
22929;SDS011;11630;42.660;23.292;2022-08-11T06:05:51;8.33;;;6.50;;
22929;SDS011;11630;42.660;23.292;2022-08-11T06:08:32;7.80;;;6.37;;
22929;SDS011;11630;42.660;23.292;2022-08-11T06:11:00;9.03;;;6.50;;
22929;SDS011;11630;42.660;23.292;2022-08-11T06:13:32;8.43;;;7.53;;
22929;SDS011;11630;42.660;23.292;2022-08-11T06:16:03;13.23;;;7.50;;
22929;SDS011;11630;42.660;23.292;2022-08-11T06:18:34;13.23;;;9.47;;
22929;SDS011;11630;42.660;23.292;2022-08-11T06:21:08;9.00;;;7.20;;
22929;SDS011;11630;42.660;23.292;2022-08-11T06:23:39;11.40;;;6.97;;
22929;SDS011;11630;42.660;23.292;2022-08-11T06:26:12;7.70;;;6.70;;
22929;SDS011;11630;42.660;23.292;2022-08-11T06:28:44;5.83;;;5.30;;
22929;SDS011;11630;42.660;23.292;2022-08-11T06:31:17;7.77;;;6.00;;
22929;SDS011;11630;42.660;23.292;2022-08-11T06:34:02;9.83;;;6.53;;
22929;SDS011;11630;42.660;23.292;2022-08-11T06:36:56;7.70;;;5.97;;
22929;SDS011;11630;42.660;23.292;2022-08-11T06:39:28;7.67;;;6.53;;
22929;SDS011;11630;42.660;23.292;2022-08-11T06:45:29;8.00;;;5.77;;
22929;SDS011;11630;42.660;23.292;2022-08-11T06:48:03;5.57;;;5.07;;
22929;SDS011;11630;42.660;23.292;2022-08-11T06:50:34;6.33;;;5.70;;
22929;SDS011;11630;42.660;23.292;2022-08-11T06:53:22;6.00;;;5.37;;
22929;SDS011;11630;42.660;23.292;2022-08-11T06:55:51;5.83;;;4.97;;
22929;SDS011;11630;42.660;23.292;2022-08-11T06:58:39;5.80;;;5.13;;
22929;SDS011;11630;42.660;23.292;2022-08-11T07:04:30;6.83;;;4.60;;
22929;SDS011;11630;42.660;23.292;2022-08-11T07:13:00;4.47;;;4.00;;
22929;SDS011;11630;42.660;23.292;2022-08-11T07:15:50;8.43;;;4.93;;
22929;SDS011;11630;42.660;23.292;2022-08-11T07:18:23;6.47;;;4.63;;
22929;SDS011;11630;42.660;23.292;2022-08-11T07:21:21;6.10;;;4.50;;
22929;SDS011;11630;42.660;23.292;2022-08-11T07:24:16;5.00;;;4.33;;
22929;SDS011;11630;42.660;23.292;2022-08-11T07:27:08;5.13;;;4.63;;
22929;SDS011;11630;42.660;23.292;2022-08-11T07:29:55;8.47;;;4.80;;
22929;SDS011;11630;42.660;23.292;2022-08-11T07:32:28;8.33;;;4.83;;
22929;SDS011;11630;42.660;23.292;2022-08-11T07:35:07;11.90;;;4.60;;
22929;SDS011;11630;42.660;23.292;2022-08-11T07:37:35;4.97;;;4.47;;
22929;SDS011;11630;42.660;23.292;2022-08-11T07:40:08;4.80;;;4.37;;
22929;SDS011;11630;42.660;23.292;2022-08-11T07:42:40;8.33;;;5.90;;
22929;SDS011;11630;42.660;23.292;2022-08-11T07:45:10;6.47;;;5.13;;
22929;SDS011;11630;42.660;23.292;2022-08-11T07:47:58;11.50;;;5.70;;
22929;SDS011;11630;42.660;23.292;2022-08-11T07:50:46;6.43;;;4.50;;
22929;SDS011;11630;42.660;23.292;2022-08-11T07:53:34;7.83;;;4.87;;
22929;SDS011;11630;42.660;23.292;2022-08-11T07:56:06;4.57;;;4.17;;
22929;SDS011;11630;42.660;23.292;2022-08-11T07:58:37;8.43;;;4.63;;
22929;SDS011;11630;42.660;23.292;2022-08-11T08:01:25;7.57;;;4.27;;
22929;SDS011;11630;42.660;23.292;2022-08-11T08:04:13;6.73;;;5.03;;
22929;SDS011;11630;42.660;23.292;2022-08-11T08:07:04;13.80;;;4.70;;
22929;SDS011;11630;42.660;23.292;2022-08-11T08:09:51;4.27;;;3.97;;
22929;SDS011;11630;42.660;23.292;2022-08-11T08:12:38;5.27;;;4.03;;
22929;SDS011;11630;42.660;23.292;2022-08-11T08:15:26;7.83;;;4.23;;
22929;SDS011;11630;42.660;23.292;2022-08-11T08:18:13;5.97;;;4.60;;
22929;SDS011;11630;42.660;23.292;2022-08-11T08:20:46;7.20;;;4.80;;
22929;SDS011;11630;42.660;23.292;2022-08-11T08:23:18;6.27;;;4.80;;
22929;SDS011;11630;42.660;23.292;2022-08-11T08:25:50;6.80;;;3.93;;
22929;SDS011;11630;42.660;23.292;2022-08-11T08:28:21;4.47;;;4.07;;
22929;SDS011;11630;42.660;23.292;2022-08-11T08:30:52;5.03;;;4.07;;
22929;SDS011;11630;42.660;23.292;2022-08-11T08:33:26;4.73;;;3.60;;
22929;SDS011;11630;42.660;23.292;2022-08-11T08:36:08;5.33;;;4.43;;
22929;SDS011;11630;42.660;23.292;2022-08-11T08:38:40;7.83;;;3.70;;
22929;SDS011;11630;42.660;23.292;2022-08-11T08:41:25;4.43;;;3.93;;
22929;SDS011;11630;42.660;23.292;2022-08-11T08:44:06;7.33;;;3.87;;
22929;SDS011;11630;42.660;23.292;2022-08-11T08:46:43;6.43;;;4.10;;
22929;SDS011;11630;42.660;23.292;2022-08-11T08:49:18;5.83;;;3.80;;
22929;SDS011;11630;42.660;23.292;2022-08-11T08:51:48;3.70;;;3.40;;
22929;SDS011;11630;42.660;23.292;2022-08-11T08:54:20;5.60;;;4.30;;
22929;SDS011;11630;42.660;23.292;2022-08-11T08:56:53;6.27;;;4.00;;
22929;SDS011;11630;42.660;23.292;2022-08-11T08:59:25;5.20;;;4.33;;
22929;SDS011;11630;42.660;23.292;2022-08-11T09:01:58;8.58;;;3.87;;
22929;SDS011;11630;42.660;23.292;2022-08-11T09:04:32;3.90;;;3.43;;
22929;SDS011;11630;42.660;23.292;2022-08-11T09:07:07;3.77;;;3.47;;
22929;SDS011;11630;42.660;23.292;2022-08-11T09:09:46;4.87;;;3.63;;
22929;SDS011;11630;42.660;23.292;2022-08-11T09:12:12;5.53;;;4.08;;
22929;SDS011;11630;42.660;23.292;2022-08-11T09:14:45;10.90;;;4.10;;
22929;SDS011;11630;42.660;23.292;2022-08-11T09:17:36;4.30;;;3.50;;
22929;SDS011;11630;42.660;23.292;2022-08-11T09:20:14;7.77;;;5.17;;
22929;SDS011;11630;42.660;23.292;2022-08-11T09:22:47;4.27;;;3.87;;
22929;SDS011;11630;42.660;23.292;2022-08-11T09:25:34;3.73;;;3.43;;
22929;SDS011;11630;42.660;23.292;2022-08-11T09:28:23;5.63;;;3.57;;
22929;SDS011;11630;42.660;23.292;2022-08-11T09:30:55;7.77;;;3.47;;
22929;SDS011;11630;42.660;23.292;2022-08-11T09:33:28;4.63;;;3.93;;
22929;SDS011;11630;42.660;23.292;2022-08-11T09:36:00;4.77;;;4.07;;
22929;SDS011;11630;42.660;23.292;2022-08-11T09:38:32;5.30;;;4.80;;
22929;SDS011;11630;42.660;23.292;2022-08-11T09:41:19;7.90;;;4.43;;
22929;SDS011;11630;42.660;23.292;2022-08-11T09:43:50;5.33;;;4.40;;
22929;SDS011;11630;42.660;23.292;2022-08-11T09:46:36;5.00;;;4.10;;
22929;SDS011;11630;42.660;23.292;2022-08-11T09:49:08;3.97;;;3.40;;
22929;SDS011;11630;42.660;23.292;2022-08-11T09:51:38;5.47;;;3.67;;
22929;SDS011;11630;42.660;23.292;2022-08-11T09:54:13;4.17;;;3.00;;
22929;SDS011;11630;42.660;23.292;2022-08-11T09:56:44;3.97;;;3.50;;
22929;SDS011;11630;42.660;23.292;2022-08-11T09:59:31;6.70;;;3.98;;
22929;SDS011;11630;42.660;23.292;2022-08-11T10:02:04;4.15;;;3.12;;
22929;SDS011;11630;42.660;23.292;2022-08-11T10:07:11;8.55;;;4.08;;
22929;SDS011;11630;42.660;23.292;2022-08-11T10:09:49;6.05;;;4.28;;
22929;SDS011;11630;42.660;23.292;2022-08-11T10:12:26;6.12;;;4.17;;
22929;SDS011;11630;42.660;23.292;2022-08-11T10:15:00;4.28;;;3.15;;
22929;SDS011;11630;42.660;23.292;2022-08-11T10:17:47;4.58;;;3.95;;
22929;SDS011;11630;42.660;23.292;2022-08-11T10:20:35;4.00;;;3.70;;
22929;SDS011;11630;42.660;23.292;2022-08-11T10:23:06;8.05;;;4.30;;
22929;SDS011;11630;42.660;23.292;2022-08-11T10:25:53;11.47;;;4.17;;
22929;SDS011;11630;42.660;23.292;2022-08-11T10:28:41;11.50;;;4.60;;
22929;SDS011;11630;42.660;23.292;2022-08-11T10:31:14;6.40;;;3.95;;
22929;SDS011;11630;42.660;23.292;2022-08-11T10:34:01;6.12;;;3.85;;
22929;SDS011;11630;42.660;23.292;2022-08-11T10:36:34;8.60;;;4.45;;
22929;SDS011;11630;42.660;23.292;2022-08-11T10:39:12;4.95;;;4.10;;
22929;SDS011;11630;42.660;23.292;2022-08-11T10:41:46;4.47;;;4.08;;
22929;SDS011;11630;42.660;23.292;2022-08-11T10:44:37;4.20;;;3.67;;
22929;SDS011;11630;42.660;23.292;2022-08-11T10:47:09;3.90;;;3.60;;
22929;SDS011;11630;42.660;23.292;2022-08-11T10:49:57;5.73;;;4.20;;
22929;SDS011;11630;42.660;23.292;2022-08-11T10:52:46;5.67;;;3.40;;
22929;SDS011;11630;42.660;23.292;2022-08-11T10:55:36;4.70;;;3.63;;
22929;SDS011;11630;42.660;23.292;2022-08-11T10:58:24;6.87;;;3.70;;
22929;SDS011;11630;42.660;23.292;2022-08-11T11:01:11;3.97;;;3.67;;
22929;SDS011;11630;42.660;23.292;2022-08-11T11:03:44;9.13;;;3.45;;
22929;SDS011;11630;42.660;23.292;2022-08-11T11:06:24;3.50;;;3.20;;
22929;SDS011;11630;42.660;23.292;2022-08-11T11:09:47;3.52;;;3.22;;
22929;SDS011;11630;42.660;23.292;2022-08-11T11:12:46;4.07;;;3.67;;
22929;SDS011;11630;42.660;23.292;2022-08-11T11:14:52;5.83;;;3.25;;
22929;SDS011;11630;42.660;23.292;2022-08-11T11:17:47;4.00;;;3.60;;
22929;SDS011;11630;42.660;23.292;2022-08-11T11:20:40;5.37;;;3.70;;
22929;SDS011;11630;42.660;23.292;2022-08-11T11:23:20;3.83;;;3.47;;
22929;SDS011;11630;42.660;23.292;2022-08-11T11:25:54;4.08;;;3.72;;
22929;SDS011;11630;42.660;23.292;2022-08-11T11:31:54;3.62;;;3.27;;
22929;SDS011;11630;42.660;23.292;2022-08-11T11:37:29;5.37;;;3.30;;
22929;SDS011;11630;42.660;23.292;2022-08-11T11:40:10;7.20;;;3.00;;
22929;SDS011;11630;42.660;23.292;2022-08-11T11:42:42;4.67;;;3.52;;
22929;SDS011;11630;42.660;23.292;2022-08-11T11:45:14;4.60;;;3.30;;
22929;SDS011;11630;42.660;23.292;2022-08-11T11:47:48;3.60;;;3.30;;
22929;SDS011;11630;42.660;23.292;2022-08-11T11:50:26;4.47;;;4.08;;
22929;SDS011;11630;42.660;23.292;2022-08-11T11:52:57;3.60;;;3.25;;
22929;SDS011;11630;42.660;23.292;2022-08-11T11:55:28;4.28;;;3.33;;
22929;SDS011;11630;42.660;23.292;2022-08-11T11:58:00;3.80;;;3.50;;
22929;SDS011;11630;42.660;23.292;2022-08-11T12:00:50;4.50;;;4.08;;
22929;SDS011;11630;42.660;23.292;2022-08-11T12:03:40;4.75;;;4.25;;
22929;SDS011;11630;42.660;23.292;2022-08-11T12:06:14;6.67;;;4.72;;
22929;SDS011;11630;42.660;23.292;2022-08-11T12:08:47;4.37;;;3.98;;
22929;SDS011;11630;42.660;23.292;2022-08-11T12:11:19;4.47;;;3.40;;
22929;SDS011;11630;42.660;23.292;2022-08-11T12:14:07;3.72;;;3.42;;
22929;SDS011;11630;42.660;23.292;2022-08-11T12:16:39;4.83;;;4.42;;
22929;SDS011;11630;42.660;23.292;2022-08-11T12:19:12;6.47;;;3.67;;
22929;SDS011;11630;42.660;23.292;2022-08-11T12:21:43;6.53;;;3.87;;
22929;SDS011;11630;42.660;23.292;2022-08-11T12:24:31;6.15;;;4.12;;
22929;SDS011;11630;42.660;23.292;2022-08-11T12:27:19;8.83;;;4.25;;
22929;SDS011;11630;42.660;23.292;2022-08-11T12:29:50;3.55;;;3.05;;
22929;SDS011;11630;42.660;23.292;2022-08-11T12:32:23;5.12;;;3.67;;
22929;SDS011;11630;42.660;23.292;2022-08-11T12:34:56;5.03;;;3.83;;
22929;SDS011;11630;42.660;23.292;2022-08-11T12:37:32;6.12;;;4.30;;
22929;SDS011;11630;42.660;23.292;2022-08-11T12:40:08;9.43;;;4.35;;
22929;SDS011;11630;42.660;23.292;2022-08-11T12:42:57;5.80;;;4.55;;
22929;SDS011;11630;42.660;23.292;2022-08-11T12:45:44;7.33;;;3.75;;
22929;SDS011;11630;42.660;23.292;2022-08-11T12:48:18;5.33;;;3.22;;
22929;SDS011;11630;42.660;23.292;2022-08-11T12:51:08;4.47;;;3.30;;
22929;SDS011;11630;42.660;23.292;2022-08-11T12:53:56;4.15;;;3.72;;
22929;SDS011;11630;42.660;23.292;2022-08-11T12:56:31;5.80;;;3.10;;
22929;SDS011;11630;42.660;23.292;2022-08-11T12:59:17;6.07;;;3.20;;
22929;SDS011;11630;42.660;23.292;2022-08-11T13:02:03;5.33;;;3.30;;
22929;SDS011;11630;42.660;23.292;2022-08-11T13:04:51;4.67;;;3.20;;
22929;SDS011;11630;42.660;23.292;2022-08-11T13:07:22;5.97;;;3.87;;
22929;SDS011;11630;42.660;23.292;2022-08-11T13:09:53;3.73;;;3.40;;
22929;SDS011;11630;42.660;23.292;2022-08-11T13:12:24;4.13;;;3.60;;
22929;SDS011;11630;42.660;23.292;2022-08-11T13:15:21;7.90;;;3.33;;
22929;SDS011;11630;42.660;23.292;2022-08-11T13:17:54;4.03;;;3.60;;
22929;SDS011;11630;42.660;23.292;2022-08-11T13:20:24;8.30;;;3.50;;
22929;SDS011;11630;42.660;23.292;2022-08-11T13:22:59;6.53;;;4.33;;
22929;SDS011;11630;42.660;23.292;2022-08-11T13:25:31;4.83;;;3.20;;
22929;SDS011;11630;42.660;23.292;2022-08-11T13:28:02;4.80;;;3.07;;
22929;SDS011;11630;42.660;23.292;2022-08-11T13:30:34;3.57;;;3.20;;
22929;SDS011;11630;42.660;23.292;2022-08-11T13:33:22;4.70;;;3.33;;
22929;SDS011;11630;42.660;23.292;2022-08-11T13:35:53;8.00;;;3.10;;
22929;SDS011;11630;42.660;23.292;2022-08-11T13:38:24;3.50;;;3.20;;
22929;SDS011;11630;42.660;23.292;2022-08-11T13:40:56;3.08;;;2.72;;
22929;SDS011;11630;42.660;23.292;2022-08-11T13:43:26;3.42;;;3.12;;
22929;SDS011;11630;42.660;23.292;2022-08-11T13:45:58;30.08;;;5.37;;
22929;SDS011;11630;42.660;23.292;2022-08-11T13:48:48;3.83;;;3.08;;
22929;SDS011;11630;42.660;23.292;2022-08-11T13:51:19;7.25;;;3.30;;
22929;SDS011;11630;42.660;23.292;2022-08-11T13:56:29;7.85;;;3.17;;
22929;SDS011;11630;42.660;23.292;2022-08-11T13:59:04;9.98;;;2.95;;
22929;SDS011;11630;42.660;23.292;2022-08-11T14:01:37;4.95;;;2.90;;
22929;SDS011;11630;42.660;23.292;2022-08-11T14:04:10;3.00;;;2.70;;
22929;SDS011;11630;42.660;23.292;2022-08-11T14:06:43;6.67;;;3.20;;
22929;SDS011;11630;42.660;23.292;2022-08-11T14:09:12;3.95;;;2.67;;
22929;SDS011;11630;42.660;23.292;2022-08-11T14:11:45;9.68;;;3.30;;
22929;SDS011;11630;42.660;23.292;2022-08-11T14:14:33;3.92;;;3.30;;
22929;SDS011;11630;42.660;23.292;2022-08-11T14:17:05;4.05;;;2.35;;
22929;SDS011;11630;42.660;23.292;2022-08-11T14:19:40;2.35;;;2.15;;
22929;SDS011;11630;42.660;23.292;2022-08-11T14:22:14;3.58;;;2.85;;
22929;SDS011;11630;42.660;23.292;2022-08-11T14:24:47;2.92;;;2.47;;
22929;SDS011;11630;42.660;23.292;2022-08-11T14:27:21;3.72;;;2.33;;
22929;SDS011;11630;42.660;23.292;2022-08-11T14:29:57;3.52;;;2.50;;
22929;SDS011;11630;42.660;23.292;2022-08-11T14:32:30;5.17;;;2.58;;
22929;SDS011;11630;42.660;23.292;2022-08-11T14:35:04;4.58;;;2.62;;
22929;SDS011;11630;42.660;23.292;2022-08-11T14:37:36;2.62;;;2.42;;
22929;SDS011;11630;42.660;23.292;2022-08-11T14:40:10;3.62;;;2.42;;
22929;SDS011;11630;42.660;23.292;2022-08-11T14:42:42;3.70;;;2.60;;
22929;SDS011;11630;42.660;23.292;2022-08-11T14:45:21;6.33;;;2.52;;
22929;SDS011;11630;42.660;23.292;2022-08-11T14:48:10;7.42;;;3.17;;
22929;SDS011;11630;42.660;23.292;2022-08-11T14:50:44;6.25;;;3.27;;
22929;SDS011;11630;42.660;23.292;2022-08-11T14:53:16;4.47;;;3.37;;
22929;SDS011;11630;42.660;23.292;2022-08-11T14:55:51;10.75;;;3.05;;
22929;SDS011;11630;42.660;23.292;2022-08-11T14:58:39;4.92;;;3.27;;
22929;SDS011;11630;42.660;23.292;2022-08-11T15:01:10;3.47;;;2.77;;
22929;SDS011;11630;42.660;23.292;2022-08-11T15:03:58;5.50;;;3.80;;
22929;SDS011;11630;42.660;23.292;2022-08-11T15:06:29;7.75;;;3.75;;
22929;SDS011;11630;42.660;23.292;2022-08-11T15:08:59;3.55;;;3.25;;
22929;SDS011;11630;42.660;23.292;2022-08-11T15:11:30;3.98;;;3.20;;
22929;SDS011;11630;42.660;23.292;2022-08-11T15:14:17;4.12;;;3.42;;
22929;SDS011;11630;42.660;23.292;2022-08-11T15:17:05;3.52;;;3.22;;
22929;SDS011;11630;42.660;23.292;2022-08-11T15:19:38;3.17;;;2.92;;
22929;SDS011;11630;42.660;23.292;2022-08-11T15:22:11;3.27;;;3.00;;
22929;SDS011;11630;42.660;23.292;2022-08-11T15:24:58;6.12;;;3.25;;
22929;SDS011;11630;42.660;23.292;2022-08-11T15:27:30;11.22;;;3.33;;
22929;SDS011;11630;42.660;23.292;2022-08-11T15:30:18;8.00;;;3.30;;
22929;SDS011;11630;42.660;23.292;2022-08-11T15:33:05;5.42;;;3.62;;
22929;SDS011;11630;42.660;23.292;2022-08-11T15:35:52;3.73;;;3.43;;
22929;SDS011;11630;42.660;23.292;2022-08-11T15:38:45;5.03;;;3.70;;
22929;SDS011;11630;42.660;23.292;2022-08-11T15:41:18;5.07;;;3.50;;
22929;SDS011;11630;42.660;23.292;2022-08-11T15:44:09;4.10;;;3.73;;
22929;SDS011;11630;42.660;23.292;2022-08-11T15:46:55;5.73;;;3.33;;
22929;SDS011;11630;42.660;23.292;2022-08-11T15:49:31;3.83;;;3.47;;
22929;SDS011;11630;42.660;23.292;2022-08-11T15:52:05;3.50;;;3.20;;
22929;SDS011;11630;42.660;23.292;2022-08-11T15:54:40;4.10;;;3.70;;
22929;SDS011;11630;42.660;23.292;2022-08-11T15:57:12;3.37;;;3.17;;
22929;SDS011;11630;42.660;23.292;2022-08-11T16:00:05;5.53;;;3.60;;
22929;SDS011;11630;42.660;23.292;2022-08-11T16:02:49;4.87;;;4.23;;
22929;SDS011;11630;42.660;23.292;2022-08-11T16:05:23;3.43;;;3.13;;
22929;SDS011;11630;42.660;23.292;2022-08-11T16:07:55;7.20;;;3.20;;
22929;SDS011;11630;42.660;23.292;2022-08-11T16:10:25;5.77;;;4.03;;
22929;SDS011;11630;42.660;23.292;2022-08-11T16:13:00;4.07;;;3.67;;
22929;SDS011;11630;42.660;23.292;2022-08-11T16:15:34;5.43;;;3.73;;
22929;SDS011;11630;42.660;23.292;2022-08-11T16:18:25;3.47;;;3.17;;
22929;SDS011;11630;42.660;23.292;2022-08-11T16:20:56;4.63;;;3.67;;
22929;SDS011;11630;42.660;23.292;2022-08-11T16:23:27;6.63;;;3.53;;
22929;SDS011;11630;42.660;23.292;2022-08-11T16:25:59;3.37;;;3.07;;
22929;SDS011;11630;42.660;23.292;2022-08-11T16:28:31;3.73;;;3.37;;
22929;SDS011;11630;42.660;23.292;2022-08-11T16:31:03;6.40;;;3.60;;
22929;SDS011;11630;42.660;23.292;2022-08-11T16:33:37;5.50;;;3.63;;
22929;SDS011;11630;42.660;23.292;2022-08-11T16:36:11;11.17;;;4.13;;
22929;SDS011;11630;42.660;23.292;2022-08-11T16:38:59;5.17;;;3.33;;
22929;SDS011;11630;42.660;23.292;2022-08-11T16:41:32;3.97;;;3.63;;
22929;SDS011;11630;42.660;23.292;2022-08-11T16:44:21;4.93;;;3.57;;
22929;SDS011;11630;42.660;23.292;2022-08-11T16:47:11;5.50;;;3.37;;
22929;SDS011;11630;42.660;23.292;2022-08-11T16:49:46;3.73;;;3.43;;
22929;SDS011;11630;42.660;23.292;2022-08-11T16:52:16;6.80;;;3.90;;
22929;SDS011;11630;42.660;23.292;2022-08-11T16:54:48;5.97;;;4.07;;
22929;SDS011;11630;42.660;23.292;2022-08-11T16:57:22;5.40;;;4.70;;
22929;SDS011;11630;42.660;23.292;2022-08-11T17:00:09;3.57;;;3.27;;
22929;SDS011;11630;42.660;23.292;2022-08-11T17:02:45;4.13;;;3.73;;
22929;SDS011;11630;42.660;23.292;2022-08-11T17:05:33;4.43;;;3.80;;
22929;SDS011;11630;42.660;23.292;2022-08-11T17:08:45;5.77;;;3.77;;
22929;SDS011;11630;42.660;23.292;2022-08-11T17:11:31;3.77;;;3.47;;
22929;SDS011;11630;42.660;23.292;2022-08-11T17:14:20;7.77;;;3.97;;
22929;SDS011;11630;42.660;23.292;2022-08-11T17:17:00;4.93;;;3.30;;
22929;SDS011;11630;42.660;23.292;2022-08-11T17:19:32;4.33;;;3.90;;
22929;SDS011;11630;42.660;23.292;2022-08-11T17:22:04;5.40;;;3.70;;
22929;SDS011;11630;42.660;23.292;2022-08-11T17:24:51;4.43;;;4.00;;
22929;SDS011;11630;42.660;23.292;2022-08-11T17:27:24;5.20;;;3.50;;
22929;SDS011;11630;42.660;23.292;2022-08-11T17:29:58;3.90;;;3.50;;
22929;SDS011;11630;42.660;23.292;2022-08-11T17:32:34;5.80;;;3.97;;
22929;SDS011;11630;42.660;23.292;2022-08-11T17:35:21;4.77;;;4.37;;
22929;SDS011;11630;42.660;23.292;2022-08-11T17:38:04;9.10;;;4.60;;
22929;SDS011;11630;42.660;23.292;2022-08-11T17:40:38;6.43;;;4.80;;
22929;SDS011;11630;42.660;23.292;2022-08-11T17:43:09;9.13;;;4.60;;
22929;SDS011;11630;42.660;23.292;2022-08-11T17:45:56;3.83;;;3.40;;
22929;SDS011;11630;42.660;23.292;2022-08-11T17:48:38;6.47;;;4.50;;
22929;SDS011;11630;42.660;23.292;2022-08-11T17:51:10;5.13;;;3.90;;
22929;SDS011;11630;42.660;23.292;2022-08-11T17:53:43;5.63;;;3.93;;
22929;SDS011;11630;42.660;23.292;2022-08-11T17:56:31;9.23;;;3.97;;
22929;SDS011;11630;42.660;23.292;2022-08-11T17:59:19;3.73;;;3.40;;
22929;SDS011;11630;42.660;23.292;2022-08-11T18:02:06;4.93;;;3.70;;
22929;SDS011;11630;42.660;23.292;2022-08-11T18:04:54;7.53;;;3.67;;
22929;SDS011;11630;42.660;23.292;2022-08-11T18:07:24;5.53;;;4.07;;
22929;SDS011;11630;42.660;23.292;2022-08-11T18:10:12;8.23;;;3.97;;
22929;SDS011;11630;42.660;23.292;2022-08-11T18:12:59;4.93;;;4.43;;
22929;SDS011;11630;42.660;23.292;2022-08-11T18:15:46;5.10;;;3.43;;
22929;SDS011;11630;42.660;23.292;2022-08-11T18:18:33;4.67;;;4.10;;
22929;SDS011;11630;42.660;23.292;2022-08-11T18:21:20;6.40;;;3.97;;
22929;SDS011;11630;42.660;23.292;2022-08-11T18:24:09;6.00;;;4.33;;
22929;SDS011;11630;42.660;23.292;2022-08-11T18:27:00;8.47;;;4.80;;
22929;SDS011;11630;42.660;23.292;2022-08-11T18:29:49;9.77;;;4.13;;
22929;SDS011;11630;42.660;23.292;2022-08-11T18:32:36;4.83;;;3.77;;
22929;SDS011;11630;42.660;23.292;2022-08-11T18:35:24;4.70;;;3.70;;
22929;SDS011;11630;42.660;23.292;2022-08-11T18:38:13;5.93;;;3.63;;
22929;SDS011;11630;42.660;23.292;2022-08-11T18:41:01;5.97;;;4.20;;
22929;SDS011;11630;42.660;23.292;2022-08-11T18:43:49;6.37;;;4.33;;
22929;SDS011;11630;42.660;23.292;2022-08-11T18:46:37;8.33;;;3.53;;
22929;SDS011;11630;42.660;23.292;2022-08-11T18:49:28;7.93;;;5.20;;
22929;SDS011;11630;42.660;23.292;2022-08-11T18:52:15;6.97;;;4.60;;
22929;SDS011;11630;42.660;23.292;2022-08-11T18:55:04;11.27;;;4.73;;
22929;SDS011;11630;42.660;23.292;2022-08-11T18:57:52;16.93;;;5.50;;
22929;SDS011;11630;42.660;23.292;2022-08-11T19:00:40;8.90;;;4.57;;
22929;SDS011;11630;42.660;23.292;2022-08-11T19:03:28;4.30;;;3.90;;
22929;SDS011;11630;42.660;23.292;2022-08-11T19:06:17;5.00;;;3.57;;
22929;SDS011;11630;42.660;23.292;2022-08-11T19:09:05;4.30;;;3.23;;
22929;SDS011;11630;42.660;23.292;2022-08-11T19:11:53;16.00;;;4.50;;
22929;SDS011;11630;42.660;23.292;2022-08-11T19:14:42;3.73;;;3.37;;
22929;SDS011;11630;42.660;23.292;2022-08-11T19:17:31;5.50;;;4.00;;